Time;durP1;ratioP1;P1;durP2;ratioP2;P2;SDS_P1;SDS_P2;PMS_P1;PMS_P2;Temp;Humidity;BMP_temperature;BMP_pressure;BME280_temperature;BME280_humidity;BME280_pressure;Samples;Min_cycle;Max_cycle;Signal;HPM_P1;HPM_P2
2022/04/14 00:00:19;;;;;;;9.52;4.20;;;16.00;99.90;;;16.29;70.64;101359.47;5193806;28;20041;-73
2022/04/14 00:02:51;;;;;;;11.85;4.72;;;16.00;99.90;;;16.28;70.41;101355.97;5206339;28;20045;-74
2022/04/14 00:05:24;;;;;;;10.15;4.50;;;16.00;99.90;;;16.28;70.27;101357.72;5207334;28;20049;-74
2022/04/14 00:07:57;;;;;;;11.70;4.30;;;16.00;99.90;;;16.27;70.47;101355.94;5208174;28;20486;-73
2022/04/14 00:10:29;;;;;;;9.93;4.45;;;16.00;99.90;;;16.27;70.48;101358.56;5207807;28;20049;-74
2022/04/14 00:13:01;;;;;;;9.20;4.35;;;16.00;99.90;;;16.27;70.37;101355.94;5207350;28;20057;-74
2022/04/14 00:15:33;;;;;;;9.50;4.20;;;16.00;99.90;;;16.23;70.40;101354.97;5207817;28;20516;-74
2022/04/14 00:18:06;;;;;;;10.85;4.38;;;16.00;99.90;;;16.23;70.34;101343.56;5207651;28;20059;-74
2022/04/14 00:20:38;;;;;;;9.15;4.00;;;16.00;99.90;;;16.21;70.41;101350.53;5207624;28;20052;-74
2022/04/14 00:23:11;;;;;;;8.20;3.45;;;15.90;99.90;;;16.18;70.54;101345.25;5206044;28;20529;-74
2022/04/14 00:25:43;;;;;;;10.05;4.32;;;15.90;99.90;;;16.13;70.54;101342.50;5207590;28;20225;-76
2022/04/14 00:28:15;;;;;;;10.45;3.90;;;15.90;99.90;;;16.10;70.68;101352.06;5207822;28;20052;-73
2022/04/14 00:30:47;;;;;;;9.02;4.20;;;15.90;99.90;;;16.09;70.69;101338.03;5207286;28;20056;-74
2022/04/14 00:33:19;;;;;;;8.10;4.07;;;15.90;99.90;;;16.08;70.89;101338.00;5206944;28;20099;-73
2022/04/14 00:35:52;;;;;;;9.93;4.43;;;15.80;99.90;;;16.07;71.06;101330.97;5202773;28;20061;-74
2022/04/14 00:38:25;;;;;;;11.35;4.53;;;15.80;99.90;;;16.07;71.13;101333.59;5206953;28;20126;-74
2022/04/14 00:40:57;;;;;;;9.73;4.57;;;15.80;99.90;;;16.03;71.20;101345.78;5207378;28;20045;-74
2022/04/14 00:43:31;;;;;;;9.80;4.68;;;15.80;99.90;;;15.99;71.48;101334.31;5206781;28;20056;-73
2022/04/14 00:46:04;;;;;;;11.05;4.35;;;15.80;99.90;;;15.96;71.57;101338.63;5207076;28;20057;-73
2022/04/14 00:48:36;;;;;;;10.70;4.45;;;15.70;99.90;;;15.96;71.83;101350.03;5206891;28;20508;-74
2022/04/14 00:51:08;;;;;;;9.48;4.47;;;15.70;99.90;;;15.97;71.80;101345.66;5206466;28;20080;-74
2022/04/14 00:53:42;;;;;;;9.65;4.30;;;15.70;99.90;;;15.94;72.09;101345.59;5205820;28;20128;-74
2022/04/14 00:56:14;;;;;;;10.88;4.90;;;15.70;99.90;;;15.92;72.24;101344.69;5203282;28;20056;-73
2022/04/14 00:58:46;;;;;;;12.00;5.03;;;15.70;99.90;;;15.91;72.12;101346.44;5204098;28;20054;-74
2022/04/14 01:01:20;;;;;;;11.10;4.97;;;15.60;99.90;;;15.92;72.24;101345.56;5194722;28;20081;-73
2022/04/14 01:03:53;;;;;;;11.40;5.05;;;15.70;99.90;;;15.94;72.33;101343.84;5185180;28;20498;-73
2022/04/14 01:06:25;;;;;;;10.20;4.32;;;15.70;99.90;;;15.96;72.44;101338.63;5186110;28;20148;-73
2022/04/14 01:09:19;;;;;;;13.00;4.80;;;15.70;99.90;;;15.93;72.55;101335.94;5186159;28;20141;-72
2022/04/14 01:11:52;;;;;;;17.45;5.50;;;15.70;99.90;;;15.91;72.69;101330.66;5185465;28;20054;-73
2022/04/14 01:14:29;;;;;;;10.02;4.93;;;15.70;99.90;;;15.91;72.88;101329.72;5185905;28;20049;-73
2022/04/14 01:17:04;;;;;;;11.90;5.55;;;15.70;99.90;;;15.91;73.01;101333.28;5185840;28;20124;-74
2022/04/14 01:19:38;;;;;;;13.80;5.60;;;15.60;99.90;;;15.90;73.10;101327.97;5186024;28;20053;-74
2022/04/14 01:22:17;;;;;;;15.18;6.50;;;15.60;99.90;;;15.87;73.44;101333.19;5185801;28;20056;-73
2022/04/14 01:24:50;;;;;;;13.32;5.47;;;15.60;99.90;;;15.85;73.62;101334.91;5199640;28;20045;-73
2022/04/14 01:27:23;;;;;;;14.20;6.15;;;15.60;99.90;;;15.85;74.12;101337.53;5206286;28;20052;-73
2022/04/14 01:29:55;;;;;;;16.30;6.53;;;15.60;99.90;;;15.84;74.06;101333.97;5205287;28;20512;-73
2022/04/14 01:32:28;;;;;;;13.02;5.45;;;15.60;99.90;;;15.83;74.30;101334.84;5205413;28;20540;-73
2022/04/14 01:35:00;;;;;;;14.38;6.43;;;15.60;99.90;;;15.82;74.53;101347.94;5206117;28;20397;-74
2022/04/14 01:37:32;;;;;;;16.20;6.70;;;15.60;99.90;;;15.82;74.67;101340.06;5205927;28;20084;-74
2022/04/14 01:40:07;;;;;;;17.92;7.22;;;15.60;99.90;;;15.81;74.78;101336.56;5206138;28;20509;-74
2022/04/14 01:42:40;;;;;;;13.57;6.70;;;15.60;99.90;;;15.79;74.91;101351.41;5205916;28;20414;-74
2022/04/14 01:45:13;;;;;;;17.25;7.70;;;15.60;99.90;;;15.75;75.43;101339.03;5205652;28;20512;-73
2022/04/14 01:47:46;;;;;;;17.77;7.22;;;15.60;99.90;;;15.75;75.65;101346.94;5205660;28;20057;-74
2022/04/14 01:50:18;;;;;;;18.25;7.95;;;15.50;99.90;;;15.72;75.99;101346.88;5205786;28;20050;-74
2022/04/14 01:52:51;;;;;;;18.45;7.80;;;15.50;99.90;;;15.69;76.31;101359.94;5205516;28;20071;-73
2022/04/14 01:55:24;;;;;;;23.27;8.82;;;15.50;99.90;;;15.65;76.56;101356.38;5205161;28;20053;-73
2022/04/14 01:57:56;;;;;;;21.50;7.97;;;15.40;99.90;;;15.65;76.81;101347.59;5205622;28;20053;-76
2022/04/14 02:00:28;;;;;;;19.45;8.48;;;15.40;99.90;;;15.64;76.92;101351.03;5205102;28;20059;-73
2022/04/14 02:03:00;;;;;;;22.70;8.77;;;15.40;99.90;;;15.63;77.48;101349.28;5205264;28;20422;-74
2022/04/14 02:05:32;;;;;;;21.35;8.32;;;15.40;99.90;;;15.60;77.67;101354.44;5205660;28;20049;-73
2022/04/14 02:08:05;;;;;;;21.38;9.27;;;15.40;99.90;;;15.54;78.16;101355.19;5205061;28;20049;-73
2022/04/14 02:10:38;;;;;;;23.90;9.73;;;15.40;99.90;;;15.48;78.47;101349.78;5205697;28;20055;-74
2022/04/14 02:13:10;;;;;;;25.17;9.40;;;15.30;99.90;;;15.45;79.10;101358.50;5204917;28;20056;-74
2022/04/14 02:15:42;;;;;;;23.83;10.80;;;15.30;99.90;;;15.44;79.19;101358.44;5205749;28;20055;-74
2022/04/14 02:18:15;;;;;;;26.70;11.40;;;15.30;99.90;;;15.42;79.55;101350.53;5205465;28;20196;-73
2022/04/14 02:20:47;;;;;;;27.65;10.32;;;15.30;99.90;;;15.38;79.91;101347.78;5205290;28;20045;-74
2022/04/14 02:23:19;;;;;;;24.35;10.43;;;15.20;99.90;;;15.38;80.09;101346.03;5204905;28;20045;-73
2022/04/14 02:25:53;;;;;;;25.25;10.77;;;15.30;99.90;;;15.36;80.09;101345.13;5204883;28;20050;-73
2022/04/14 02:28:25;;;;;;;25.55;11.38;;;15.20;99.90;;;15.31;80.31;101346.75;5205588;28;20136;-74
2022/04/14 02:30:57;;;;;;;18.92;9.38;;;15.10;99.90;;;15.28;80.81;101340.53;5204726;28;20482;-74
2022/04/14 02:33:29;;;;;;;20.10;9.02;;;15.10;99.90;;;15.25;81.10;101351.84;5204842;28;20045;-73
2022/04/14 02:36:01;;;;;;;21.55;9.75;;;15.00;99.90;;;15.21;81.25;101352.63;5205405;28;20517;-74
2022/04/14 02:38:33;;;;;;;23.60;9.13;;;15.00;99.90;;;15.16;81.57;101351.63;5205027;28;20406;-75
2022/04/14 02:41:06;;;;;;;21.92;9.93;;;14.90;99.90;;;15.12;81.70;101350.66;5204597;28;20055;-73
2022/04/14 02:43:39;;;;;;;23.67;9.90;;;14.90;99.90;;;15.10;82.26;101346.22;5204635;28;20302;-74
2022/04/14 02:46:11;;;;;;;21.90;9.25;;;14.90;99.90;;;15.09;82.53;101341.81;5204092;28;20049;-74
2022/04/14 02:48:43;;;;;;;23.08;8.77;;;14.90;99.90;;;15.09;82.84;101344.44;5204863;28;20152;-75
2022/04/14 02:51:15;;;;;;;20.20;8.80;;;14.80;99.90;;;15.08;82.86;101338.31;5204907;28;20235;-73
2022/04/14 02:53:47;;;;;;;20.02;8.57;;;14.80;99.90;;;15.05;82.99;101337.34;5204198;28;20143;-74
2022/04/14 02:56:20;;;;;;;21.33;9.00;;;14.80;99.90;;;15.05;83.12;101342.56;5205114;28;20071;-74
2022/04/14 02:58:52;;;;;;;18.40;8.63;;;14.80;99.90;;;15.03;83.44;101337.28;5204781;28;20466;-74
2022/04/14 03:01:24;;;;;;;21.17;9.38;;;14.80;99.90;;;15.01;83.54;101341.63;5204561;28;20049;-73
2022/04/14 03:03:56;;;;;;;18.38;8.82;;;14.70;99.90;;;14.96;83.83;101338.00;5204528;28;20085;-75
2022/04/14 03:06:28;;;;;;;22.00;8.85;;;14.70;99.90;;;14.89;83.78;101329.06;5204837;28;20045;-74
2022/04/14 03:09:00;;;;;;;22.88;9.98;;;14.70;99.90;;;14.85;84.24;101331.56;5204825;28;20128;-74
2022/04/14 03:11:33;;;;;;;23.65;8.57;;;14.60;99.90;;;14.85;84.36;101329.84;5204049;28;20049;-73
2022/04/14 03:14:06;;;;;;;21.77;9.63;;;14.60;99.90;;;14.86;84.72;101334.22;5204737;28;20161;-74
2022/04/14 03:16:38;;;;;;;21.40;9.18;;;14.60;99.90;;;14.88;84.86;101335.19;5204398;28;20053;-73
2022/04/14 03:19:10;;;;;;;24.10;9.75;;;14.60;99.90;;;14.88;85.07;101329.94;5204425;28;20137;-74
2022/04/14 03:21:42;;;;;;;22.20;9.63;;;14.60;99.90;;;14.89;84.92;101330.81;5204158;28;20052;-73
2022/04/14 03:24:14;;;;;;;21.42;9.63;;;14.60;99.90;;;14.86;85.11;101328.97;5204424;28;20049;-74
2022/04/14 03:26:47;;;;;;;22.20;9.05;;;14.60;99.90;;;14.86;85.39;101339.47;5204509;28;20056;-74
2022/04/14 03:29:19;;;;;;;22.90;9.82;;;14.60;99.90;;;14.86;85.36;101344.72;5204368;28;20118;-74
2022/04/14 03:31:51;;;;;;;21.38;9.43;;;14.60;99.90;;;14.86;85.60;101355.22;5204367;28;20045;-73
2022/04/14 03:34:23;;;;;;;24.90;8.75;;;14.60;99.90;;;14.87;85.62;101343.03;5204501;28;20045;-73
2022/04/14 03:36:55;;;;;;;21.63;10.10;;;14.60;99.90;;;14.86;85.72;101349.97;5204705;28;20051;-73
2022/04/14 03:39:27;;;;;;;23.70;9.70;;;14.50;99.90;;;14.86;85.84;101341.22;5204430;28;20053;-73
2022/04/14 03:42:00;;;;;;;22.60;9.73;;;14.60;99.90;;;14.84;86.04;101338.56;5203764;28;20049;-74
2022/04/14 03:44:32;;;;;;;24.00;9.98;;;14.60;99.90;;;14.84;86.16;101342.94;5204451;28;20049;-74
2022/04/14 03:47:05;;;;;;;25.52;9.98;;;14.50;99.90;;;14.82;86.34;101337.66;5204374;28;20413;-74
2022/04/14 03:49:37;;;;;;;25.17;10.10;;;14.60;99.90;;;14.81;86.42;101337.63;5204305;28;20046;-74
2022/04/14 03:52:09;;;;;;;24.15;10.05;;;14.50;99.90;;;14.78;86.79;101348.91;5204148;28;20482;-74
2022/04/14 03:54:41;;;;;;;27.98;11.00;;;14.50;99.90;;;14.76;86.81;101353.22;5204403;28;20049;-74
2022/04/14 03:57:15;;;;;;;26.83;10.88;;;14.50;99.90;;;14.75;86.95;101353.19;5206911;28;20518;-74
2022/04/14 03:59:47;;;;;;;28.30;11.85;;;14.50;99.90;;;14.74;87.22;101357.56;5207870;28;20415;-74
2022/04/14 04:02:18;;;;;;;26.48;11.38;;;14.40;99.90;;;14.63;87.27;101338.00;5215096;23;20053;31
2022/04/14 04:04:50;;;;;;;31.05;12.32;;;14.50;99.90;;;14.70;87.46;101350.44;5213443;28;20068;-88
2022/04/14 04:07:22;;;;;;;27.75;12.60;;;14.40;99.90;;;14.71;87.51;101364.44;5218935;28;20060;-88
2022/04/14 04:09:54;;;;;;;28.65;11.95;;;14.40;99.90;;;14.69;87.71;101364.41;5220905;28;20057;-86
2022/04/14 04:12:28;;;;;;;28.13;11.82;;;14.40;99.90;;;14.69;87.75;101363.53;5220274;28;20053;-87
2022/04/14 04:15:00;;;;;;;31.00;12.60;;;14.40;99.90;;;14.63;88.19;101364.25;5220277;28;20136;-85
2022/04/14 04:17:33;;;;;;;35.10;12.93;;;14.40;99.90;;;14.66;88.16;101369.56;5290092;22;20041;-69
2022/04/14 04:20:06;;;;;;;34.80;13.10;;;14.40;99.90;;;14.62;88.48;101365.09;5223411;28;20422;-69
2022/04/14 04:22:38;;;;;;;31.08;12.70;;;14.40;99.90;;;14.58;88.46;101366.72;5207337;28;20056;-69
2022/04/14 04:25:10;;;;;;;29.40;12.50;;;14.30;99.90;;;14.56;89.03;101371.06;5207630;28;20099;-69
2022/04/14 04:27:43;;;;;;;33.53;13.65;;;14.30;99.90;;;14.56;89.57;101372.78;5212808;28;20066;-70
2022/04/14 04:30:16;;;;;;;30.33;12.05;;;14.30;99.90;;;14.55;89.60;101371.91;5227920;28;20045;-70
2022/04/14 04:32:48;;;;;;;33.92;13.27;;;14.30;99.90;;;14.54;90.04;101378.00;5227924;28;20045;-68
2022/04/14 04:35:20;;;;;;;32.13;12.88;;;14.30;99.90;;;14.51;90.46;101380.53;5228115;28;20096;-69
2022/04/14 04:37:52;;;;;;;32.58;12.75;;;14.20;99.90;;;14.51;91.13;101390.13;5227828;28;20060;-70
2022/04/14 04:40:24;;;;;;;33.30;13.57;;;14.30;99.90;;;14.51;91.36;101384.88;5228090;28;20409;-69
2022/04/14 04:42:57;;;;;;;33.15;13.95;;;14.30;99.90;;;14.51;91.77;101390.13;5227539;28;20071;-69
2022/04/14 04:45:29;;;;;;;38.47;14.63;;;14.20;99.90;;;14.50;92.38;101388.38;5217559;28;20045;-70
2022/04/14 04:48:02;;;;;;;36.72;14.57;;;14.30;99.90;;;14.50;93.02;101399.75;5227777;28;20432;-69
2022/04/14 04:50:34;;;;;;;36.50;13.35;;;14.30;99.90;;;14.51;93.14;101398.00;5227965;28;20140;-69
2022/04/14 04:53:06;;;;;;;37.92;13.85;;;14.20;99.90;;;14.50;93.49;101398.84;5227441;28;20049;-69
2022/04/14 04:55:38;;;;;;;35.10;14.60;;;14.20;99.90;;;14.51;93.96;101395.38;5227962;28;20088;-69
2022/04/14 04:58:11;;;;;;;34.45;13.93;;;14.30;99.90;;;14.50;93.88;101401.47;5227570;28;20049;-70
2022/04/14 05:00:44;;;;;;;36.63;14.15;;;14.30;99.90;;;14.50;94.57;101388.38;5227375;28;20478;-68
2022/04/14 05:03:17;;;;;;;35.30;13.75;;;14.30;99.90;;;14.48;94.62;101390.06;5227157;28;20051;-69
2022/04/14 05:05:49;;;;;;;38.30;14.77;;;14.20;99.90;;;14.48;95.07;101390.06;5227640;28;20052;-68
2022/04/14 05:08:21;;;;;;;35.47;13.65;;;14.20;99.90;;;14.47;95.42;101385.63;5226934;28;20051;-69
2022/04/14 05:10:53;;;;;;;38.67;15.02;;;14.20;99.90;;;14.49;95.82;101386.59;5227097;28;20135;-69
2022/04/14 05:13:27;;;;;;;36.53;14.52;;;14.20;99.90;;;14.49;96.06;101402.31;5227584;28;20041;-68
2022/04/14 05:16:01;;;;;;;40.78;14.85;;;14.20;99.90;;;14.49;96.14;101407.56;5227266;28;20136;-69
2022/04/14 05:18:34;;;;;;;;;;;14.20;99.90;;;14.48;96.39;101411.94;5227653;28;20049;-70
2022/04/14 05:21:06;;;;;;;37.40;12.60;;;14.20;99.90;;;14.47;96.50;101419.75;5226953;28;19921;-69
2022/04/14 05:23:38;;;;;;;39.75;15.13;;;14.20;99.90;;;14.45;96.99;101421.41;5227019;28;20053;-71
2022/04/14 05:26:10;;;;;;;37.00;15.40;;;14.20;99.90;;;14.47;97.21;101422.34;5227049;28;20478;-70
2022/04/14 05:28:43;;;;;;;38.63;15.55;;;14.20;99.90;;;14.45;97.26;101431.91;5227495;28;20494;-71
2022/04/14 05:31:15;;;;;;;39.83;15.45;;;14.20;99.90;;;14.44;97.37;101427.50;5227004;28;20053;-71
2022/04/14 05:33:48;;;;;;;43.50;16.38;;;14.20;99.90;;;14.42;97.45;101419.59;5226772;28;20266;-71
2022/04/14 05:36:21;;;;;;;41.80;16.48;;;14.20;99.90;;;14.42;97.62;101410.84;5226996;28;20056;-71
2022/04/14 05:38:53;;;;;;;39.40;16.40;;;14.20;99.90;;;14.42;97.77;101402.97;5226775;28;20049;-70
2022/04/14 05:41:25;;;;;;;45.50;16.23;;;14.20;99.90;;;14.44;98.13;101410.03;5226396;28;20052;-71
2022/04/14 05:43:58;;;;;;;40.05;16.13;;;14.20;99.90;;;14.48;98.55;101411.06;5226659;28;20498;-70
2022/04/14 05:46:30;;;;;;;38.63;14.77;;;14.20;99.90;;;14.46;98.14;101412.69;5226782;28;20484;-72
2022/04/14 05:49:02;;;;;;;42.60;15.65;;;14.20;99.90;;;14.44;98.35;101424.88;5226929;28;20041;-71
2022/04/14 05:51:34;;;;;;;41.30;16.85;;;14.20;99.90;;;14.44;98.71;101422.25;5222142;28;20044;-71
2022/04/14 05:54:06;;;;;;;39.58;14.20;;;14.20;99.90;;;14.45;98.99;101418.78;5225334;28;20140;-70
2022/04/14 05:56:38;;;;;;;41.60;16.65;;;14.20;99.90;;;14.43;99.30;101405.63;5225732;28;20431;-71
2022/04/14 05:59:16;;;;;;;43.42;17.40;;;14.20;99.90;;;14.46;99.37;101417.94;5225729;28;20129;-69
2022/04/14 06:01:49;;;;;;;41.60;15.57;;;14.20;99.90;;;14.47;99.38;101414.50;5225991;28;20505;-70
2022/04/14 06:04:21;;;;;;;36.60;15.15;;;14.20;99.90;;;14.46;99.35;101421.47;5226284;28;20057;-70
2022/04/14 06:06:53;;;;;;;39.13;14.63;;;14.20;99.90;;;14.45;99.37;101432.78;5226256;28;20404;-69
2022/04/14 06:09:25;;;;;;;35.88;15.18;;;14.20;99.90;;;14.45;99.29;101439.75;5226171;28;20053;-69
2022/04/14 06:11:57;;;;;;;40.17;15.93;;;14.20;99.90;;;14.46;99.77;101439.84;5226279;28;20136;-68
2022/04/14 06:14:33;;;;;;;40.72;16.45;;;14.20;99.90;;;14.47;100.00;101435.47;5226483;28;20049;-69
2022/04/14 06:17:05;;;;;;;41.67;15.88;;;14.20;99.90;;;14.46;99.98;101424.09;5225861;28;20056;-68
2022/04/14 06:19:38;;;;;;;39.63;16.10;;;14.20;99.90;;;14.49;100.00;101431.19;5224987;28;20122;-69
2022/04/14 06:22:10;;;;;;;40.95;15.85;;;14.20;99.90;;;14.50;100.00;101425.09;5225770;28;20140;-70
2022/04/14 06:24:42;;;;;;;40.35;16.33;;;14.20;99.90;;;14.51;100.00;101421.63;5226105;28;20575;-69
2022/04/14 06:27:14;;;;;;;38.72;15.70;;;14.20;99.90;;;14.51;100.00;101432.09;5208599;28;20051;-69
2022/04/14 06:29:47;;;;;;;42.00;16.60;;;14.20;99.90;;;14.51;100.00;101437.34;5226019;28;20044;-67
2022/04/14 06:32:19;;;;;;;40.67;16.08;;;14.30;99.90;;;14.51;100.00;101443.50;5225421;28;20074;-67
2022/04/14 06:34:51;;;;;;;41.88;16.40;;;14.20;99.90;;;14.50;100.00;101443.44;5226255;28;20140;-68
2022/04/14 06:37:23;;;;;;;41.75;15.77;;;14.20;99.90;;;14.49;100.00;101466.19;5226054;28;20055;-68
2022/04/14 06:39:55;;;;;;;41.17;15.75;;;14.20;99.90;;;14.45;100.00;101471.25;5225966;28;20552;-68
2022/04/14 06:42:27;;;;;;;41.28;16.52;;;14.20;99.90;;;14.42;100.00;101473.78;5222314;28;20072;-69
2022/04/14 06:45:01;;;;;;;44.03;16.58;;;14.20;99.90;;;14.46;100.00;101480.88;5226026;28;20136;-67
2022/04/14 06:47:33;;;;;;;42.70;16.80;;;14.20;99.90;;;14.53;100.00;101483.75;5225684;28;20055;-69
2022/04/14 06:50:06;;;;;;;42.70;17.20;;;14.20;99.90;;;14.58;100.00;101476.03;5225621;28;20144;-69
2022/04/14 06:52:39;;;;;;;41.13;15.75;;;14.30;99.90;;;14.65;100.00;101485.88;5225216;28;20064;-70
2022/04/14 06:55:11;;;;;;;42.63;16.92;;;14.40;99.90;;;14.69;100.00;101474.63;5225672;28;20076;-71
2022/04/14 06:57:43;;;;;;;43.53;16.48;;;14.40;99.90;;;14.71;100.00;101475.53;5219624;28;20045;-70
2022/04/14 07:00:18;;;;;;;39.45;15.60;;;14.40;99.90;;;14.70;100.00;101486.00;5222712;28;20049;-72
2022/04/14 07:02:52;;;;;;;12.32;5.95;;;14.40;99.90;;;14.68;99.20;101493.84;5225113;28;20049;-68
2022/04/14 07:05:25;;;;;;;16.77;6.07;;;14.40;99.90;;;14.95;88.54;101488.50;5225777;28;20134;-67
2022/04/14 07:07:57;;;;;;;22.02;9.43;;;14.60;99.90;;;15.57;82.39;101489.25;5225697;28;20045;-70
2022/04/14 07:10:29;;;;;;;28.08;11.27;;;15.20;99.90;;;16.12;80.96;101492.38;5225290;28;20055;-67
2022/04/14 07:13:01;;;;;;;28.85;10.70;;;15.70;99.90;;;16.46;79.99;101499.28;5225914;28;20055;-67
2022/04/14 07:15:34;;;;;;;29.25;11.68;;;16.20;99.90;;;16.74;78.41;101500.78;5225830;28;20051;-68
2022/04/14 07:18:07;;;;;;;29.38;11.68;;;16.50;99.90;;;16.98;77.54;101498.66;5225417;28;20136;-71
2022/04/14 07:20:39;;;;;;;29.67;12.27;;;16.80;99.90;;;17.14;77.81;101497.19;5225055;28;20052;-70
2022/04/14 07:23:11;;;;;;;30.25;13.18;;;17.00;99.90;;;17.21;77.47;101498.22;5225662;28;20573;-68
2022/04/14 07:25:44;;;;;;;29.58;12.25;;;17.20;99.90;;;17.31;76.79;101505.44;5225645;28;20136;-70
2022/04/14 07:28:17;;;;;;;28.17;12.45;;;17.30;99.90;;;17.39;76.68;101505.56;5225416;28;20096;-68
2022/04/14 07:30:50;;;;;;;31.00;13.15;;;17.30;99.90;;;17.45;76.50;101509.22;5225720;28;20049;-70
2022/04/14 07:33:22;;;;;;;35.92;13.27;;;17.40;99.90;;;17.48;76.55;101504.00;5229637;28;20512;-69
2022/04/14 07:35:54;;;;;;;35.97;13.55;;;17.50;99.90;;;17.52;76.44;101508.44;5229591;28;20052;-68
2022/04/14 07:38:26;;;;;;;30.35;12.68;;;17.50;99.90;;;17.55;76.82;101508.53;5229374;28;20052;-67
2022/04/14 07:40:58;;;;;;;34.58;13.55;;;17.50;99.90;;;17.55;76.83;101511.16;5229081;28;20045;-66
2022/04/14 07:43:30;;;;;;;35.28;14.00;;;17.50;99.90;;;17.60;76.92;101514.78;5229319;28;20053;-67
2022/04/14 07:46:04;;;;;;;39.08;17.00;;;17.60;99.90;;;17.52;77.15;101511.09;5228790;28;20139;-71
2022/04/14 07:48:36;;;;;;;38.00;15.93;;;17.50;99.90;;;17.27;78.56;101514.13;5228000;28;20053;-72
2022/04/14 07:51:09;;;;;;;38.90;16.92;;;17.30;99.90;;;17.02;80.47;101513.69;5229306;28;20091;-70
2022/04/14 07:53:41;;;;;;;39.95;16.30;;;17.00;99.90;;;16.84;82.25;101518.56;5228431;28;20055;-70
2022/04/14 07:56:13;;;;;;;39.70;17.48;;;16.80;99.90;;;16.71;83.93;101516.53;5227334;28;20049;-71
2022/04/14 07:58:45;;;;;;;40.70;16.40;;;16.60;99.90;;;16.61;85.17;101515.41;5224768;28;20044;-71
2022/04/14 08:01:19;;;;;;;45.00;17.60;;;16.50;99.90;;;16.59;86.15;101521.50;5228709;28;20064;-71
2022/04/14 08:03:52;;;;;;;45.80;17.60;;;16.40;99.90;;;16.59;87.19;101516.25;5226791;28;20130;-69
2022/04/14 08:06:27;;;;;;;44.65;17.67;;;16.30;99.90;;;16.70;87.76;101514.78;5217687;28;20462;-70
2022/04/14 08:09:02;;;;;;;44.35;18.10;;;16.30;99.90;;;16.88;87.97;101511.59;5224354;28;20132;-70
2022/04/14 08:11:34;;;;;;;;;;;16.40;99.90;;;17.24;88.45;101516.72;5226467;28;20460;-70
2022/04/14 08:14:06;;;;;;;46.22;18.77;;;16.60;99.90;;;17.67;86.88;101520.13;5228746;28;19924;-70
2022/04/14 08:16:40;;;;;;;39.97;17.27;;;16.80;99.90;;;18.21;85.25;101511.38;5228371;28;20053;-71
2022/04/14 08:19:12;;;;;;;44.47;18.00;;;17.20;99.90;;;18.63;83.14;101511.97;5213145;28;20084;-71
2022/04/14 08:21:46;;;;;;;48.95;18.10;;;17.50;99.90;;;18.92;79.84;101512.38;5207212;28;20057;-70
2022/04/14 08:24:18;;;;;;;43.97;18.17;;;17.80;99.90;;;19.34;77.88;101512.81;5208003;28;20758;-71
2022/04/14 08:26:52;;;;;;;41.53;18.00;;;18.10;99.90;;;19.52;74.48;101515.66;5207677;28;20049;-71
2022/04/14 08:29:24;;;;;;;32.53;13.20;;;18.20;99.90;;;19.51;71.40;101519.19;5207715;28;20046;-58
2022/04/14 08:31:58;;;;;;;40.45;17.20;;;18.40;99.90;;;19.54;71.01;101527.13;5207412;28;20754;-56
2022/04/14 08:34:30;;;;;;;31.00;11.35;;;18.50;99.90;;;19.54;69.43;101516.53;5207702;28;20056;-57
2022/04/14 08:37:02;;;;;;;43.20;17.25;;;18.60;99.90;;;19.55;69.39;101526.25;5207560;28;20049;-56
2022/04/14 08:39:34;;;;;;;46.33;19.05;;;18.70;99.90;;;19.40;69.63;101523.47;5207645;28;20506;-59
2022/04/14 08:42:14;;;;;;;45.78;18.40;;;18.60;99.90;;;19.21;71.08;101527.66;5206776;28;20050;-56
2022/04/14 08:44:48;;;;;;;40.70;17.30;;;18.60;99.90;;;19.28;71.59;101526.84;5207125;28;20052;-57
2022/04/14 08:47:22;;;;;;;40.40;17.45;;;18.60;99.90;;;19.23;71.14;101526.84;5207444;28;20057;-55
2022/04/14 08:49:56;;;;;;;40.20;17.45;;;18.50;99.90;;;19.51;71.18;101529.75;5207005;28;20060;-57
2022/04/14 08:52:28;;;;;;;40.25;17.42;;;18.70;99.90;;;19.66;70.68;101532.56;5206664;28;20085;-56
2022/04/14 08:55:02;;;;;;;39.75;18.30;;;18.80;99.90;;;19.74;70.46;101533.50;5207352;28;20053;-57
2022/04/14 08:57:35;;;;;;;40.30;16.58;;;18.80;99.90;;;19.65;69.69;101522.88;5207076;28;20055;-57
2022/04/14 09:00:10;;;;;;;34.42;15.75;;;18.80;99.90;;;19.41;70.80;101523.47;5206847;28;20133;-57
2022/04/14 09:02:45;;;;;;;;;;;18.70;99.90;;;19.37;71.00;101523.44;5207361;28;20159;-56
2022/04/14 09:05:18;;;;;;;40.90;17.02;;;18.70;99.90;;;19.50;70.66;101522.69;5207061;28;19921;-56
2022/04/14 09:07:51;;;;;;;33.33;14.93;;;18.80;99.90;;;19.64;69.86;101523.75;5206954;28;20072;-56
2022/04/14 09:10:24;;;;;;;40.00;17.55;;;18.90;99.90;;;19.59;69.80;101522.81;5206809;28;20052;-59
2022/04/14 09:12:56;;;;;;;42.88;18.45;;;18.90;99.90;;;19.45;69.35;101534.97;5206479;28;20049;-57
2022/04/14 09:15:28;;;;;;;39.67;17.60;;;18.80;99.90;;;19.37;69.29;101531.38;5206897;28;20490;-56
2022/04/14 09:18:02;;;;;;;40.25;16.55;;;18.80;99.90;;;19.33;68.93;101529.56;5206596;28;20513;-56
2022/04/14 09:20:37;;;;;;;40.90;17.27;;;18.80;99.90;;;19.54;69.22;101532.41;5206414;28;20056;-57
2022/04/14 09:23:21;;;;;;;44.25;18.73;;;18.90;99.90;;;19.98;68.45;101522.25;5206069;28;20454;-66
2022/04/14 09:26:11;;;;;;;41.10;17.27;;;19.20;99.90;;;20.24;66.95;101522.44;5207020;28;20076;-62
2022/04/14 09:29:01;;;;;;;43.45;16.80;;;19.40;99.90;;;20.67;65.85;101519.19;5206986;28;20073;-63
2022/04/14 09:31:49;;;;;;;39.17;16.52;;;19.70;99.90;;;21.10;64.31;101530.84;5206310;28;20046;-63
2022/04/14 09:34:48;;;;;;;37.70;17.15;;;20.10;99.90;;;21.45;62.60;101530.94;5206744;28;20056;-62
2022/04/14 09:37:21;;;;;;;36.78;16.55;;;20.50;99.90;;;21.68;60.95;101531.88;5206370;28;20053;-62
2022/04/14 09:39:56;;;;;;;38.90;16.02;;;20.70;99.20;;;21.55;59.92;101532.75;5206116;28;20042;-59
2022/04/14 09:42:30;;;;;;;39.80;17.05;;;20.70;98.20;;;21.47;60.23;101531.88;5206125;28;20049;-59
2022/04/14 09:45:19;;;;;;;33.00;15.90;;;20.70;98.00;;;21.68;59.91;101531.88;5206660;28;20045;-64
2022/04/14 09:47:53;;;;;;;35.67;16.70;;;20.90;97.80;;;22.01;58.86;101531.88;5214813;28;20425;-60
2022/04/14 09:50:32;;;;;;;30.30;14.93;;;21.10;97.50;;;22.37;57.40;101517.72;5226245;28;20059;-62
2022/04/14 09:53:07;;;;;;;31.40;15.13;;;21.30;96.60;;;22.66;56.09;101526.47;5226447;28;20049;-63
2022/04/14 09:55:41;;;;;;;32.17;15.25;;;21.60;95.70;;;22.91;54.59;101516.66;5218864;28;20386;-60
2022/04/14 09:58:16;;;;;;;31.27;14.88;;;21.80;94.40;;;23.06;54.61;101514.81;5222313;28;20045;-64
2022/04/14 10:00:50;;;;;;;30.90;14.15;;;22.00;94.00;;;23.22;52.98;101516.50;5226459;28;20067;-61
2022/04/14 10:03:24;;;;;;;26.83;11.98;;;22.10;92.80;;;23.22;51.90;101521.81;5225966;28;20056;-61
2022/04/14 10:05:59;;;;;;;;;;;22.20;91.50;;;22.99;52.38;101509.53;5226816;28;20401;-62
2022/04/14 10:08:41;;;;;;;27.70;12.98;;;22.10;91.10;;;22.58;51.58;101516.75;5226493;28;19920;-60
2022/04/14 10:11:13;;;;;;;29.02;14.13;;;21.90;89.30;;;22.19;52.14;101510.66;5226258;28;20519;-71
2022/04/14 10:13:45;;;;;;;28.60;14.57;;;21.60;89.20;;;21.99;52.60;101512.44;5226184;28;20045;-71
2022/04/14 10:16:20;;;;;;;31.17;15.57;;;21.40;89.70;;;21.98;53.34;101502.69;5240350;22;20063;-69
2022/04/14 10:18:53;;;;;;;30.63;14.55;;;21.30;90.90;;;21.90;53.47;101507.97;5225729;28;20045;-67
2022/04/14 10:21:27;;;;;;;31.05;14.40;;;21.20;90.90;;;21.79;53.39;101507.13;5225978;28;20409;-66
2022/04/14 10:24:00;;;;;;;31.00;14.55;;;21.10;90.70;;;21.62;53.55;101509.75;5226351;28;20060;-66
2022/04/14 10:26:35;;;;;;;23.70;12.88;;;21.00;90.70;;;21.59;53.85;101504.47;5226237;28;20052;-65